Andrews Air Force Base, Maryland
Current Conditions -  °F | °C
As of 11:58 PM on Saturday 25 Oct 2014 (Local Time) from KADW Reporting Station
Clear Clear  
Wind Chill: 13°   Ceiling: Unl
Heat Index: 13°   Visibility: 10mi
Dew Point:   Wind: 6mph
Humidity: 67%   Direction: 230°SW
Pressure: 29.71"   Gusts: NA
Location:  38.8062°N, 76.8756°W
Report Text: KADW 260358Z AUTO 23005KT 10SM CLR 13/07 A2971 RMK AO2 SLP067 T01280069 $
Loading
Personal Weather Stations






























Interactive Weather Map
Tropical Storm Tracking
New forecast layout! Learn more

10-Day Weather Forecast

Advertisements
Track Severe Weather on mobile